Latest Weather Observations for Loxton

IDS60801

Issued at 7:32 am CDT Monday 27 January 2020 (issued every 10 minutes, with the page automatically refreshed every 10 minutes)

About weather observations | Map of weather stations | Latest weather observations for SA | Other Formats
Station Details ID: 024024 Name: LOXTON RESEARCH CENTRE Lat: -34.44 Lon: 140.60 Height: 30.1 m
Data from the previous 72 hours. | See also: Recent months at Loxton
Date/Time
CDT
Temp
°C
App
Temp
°C
Dew
Point
°C
Rel
Hum
%
Delta-T
°C
Wind Press
QNH
hPa
Press
MSL
hPa
Rain since
9am
mm
Dir  Spd
km/h
Gust
km/h
Spd
kts
Gust
kts
27/07:30am 15.4 12.5 9.8 69 2.9 SSW 15 22 8 12 1016.3 1016.1 0.0
27/07:00am 14.7 13.4 10.1 74 2.4 SSW 7 9 4 5 1015.7 1015.5 0.0
27/06:30am 14.2 13.2 10.4 78 2.0 S 6 7 3 4 1015.3 1015.1 0.0
27/06:00am 14.7 13.1 10.1 74 2.4 S 9 11 5 6 1015.2 1015.0 0.0
27/05:30am 14.9 13.3 10.1 73 2.5 S 9 13 5 7 1015.3 1015.1 0.0
27/05:00am 15.4 13.8 10.3 71 2.7 S 9 17 5 9 1015.2 1015.0 0.0
27/04:30am 15.8 14.2 10.3 70 2.9 SSW 9 13 5 7 1015.1 1014.9 0.0
27/04:00am 16.2 14.2 10.3 68 3.1 S 11 20 6 11 1014.8 1014.6 0.0
27/03:30am 16.7 13.6 10.3 66 3.4 S 17 22 9 12 1014.6 1014.4 0.0
27/03:00am 17.1 14.4 10.5 65 3.5 S 15 20 8 11 1014.7 1014.5 0.0
27/02:30am 17.7 15.8 10.6 63 3.8 S 11 17 6 9 1015.1 1014.9 0.0
27/02:00am 18.2 15.9 10.6 61 4.1 SSW 13 20 7 11 1015.3 1015.1 0.0
27/01:30am 18.8 16.9 10.6 59 4.4 S 11 17 6 9 1015.1 1014.9 0.0
27/01:00am 19.4 17.6 10.7 57 4.7 S 11 15 6 8 1015.3 1015.1 0.0
27/12:30am 20.2 17.6 10.6 54 5.2 S 15 19 8 10 1015.5 1015.3 0.0
27/12:00am 21.1 17.7 10.4 50 5.8 S 19 26 10 14 1015.4 1015.2 0.0
 
Date/Time
CDT
Temp
°C
App
Temp
°C
Dew
Point
°C
Rel
Hum
%
Delta-T
°C
Wind Press
QNH
hPa
Press
MSL
hPa
Rain since
9am
mm
Dir  Spd
km/h
Gust
km/h
Spd
kts
Gust
kts
26/11:30pm 22.0 18.3 10.3 47 6.4 S 20 28 11 15 1015.4 1015.2 0.0
26/11:00pm 23.0 19.7 9.7 42 7.2 S 17 24 9 13 1015.2 1015.0 0.0
26/10:30pm 24.1 20.8 9.4 39 8.0 S 17 22 9 12 1015.1 1014.9 0.0
26/10:00pm 24.8 21.7 10.4 40 8.0 SSW 17 26 9 14 1014.9 1014.7 0.0
26/09:30pm 25.7 22.7 10.5 38 8.5 S 17 26 9 14 1014.5 1014.3 0.0
26/09:00pm 26.5 24.0 10.9 37 8.8 S 15 20 8 11 1014.0 1013.8 0.0
26/08:30pm 27.3 24.8 11.1 36 9.2 S 15 22 8 12 1013.5 1013.3 0.0
26/08:00pm 28.5 25.5 10.7 33 10.1 SSW 17 24 9 13 1013.3 1013.1 0.0
26/07:30pm 29.4 26.0 10.4 30 10.8 SSW 19 30 10 16 1012.8 1012.6 0.0
26/07:00pm 30.2 26.5 9.3 27 11.7 SSW 19 32 10 17 1012.5 1012.4 0.0
26/06:30pm 31.0 27.1 9.3 26 12.2 SSW 20 32 11 17 1012.2 1012.1 0.0
26/06:00pm 31.2 27.5 10.2 27 12.0 SSW 20 32 11 17 1012.1 1012.0 0.0
26/05:30pm 31.7 28.3 11.3 28 11.9 SSW 20 28 11 15 1012.2 1012.1 0.0
26/05:00pm 31.8 28.0 11.2 28 12.0 SSW 22 39 12 21 1012.2 1012.1 0.0
26/04:30pm 32.2 29.1 10.3 26 12.6 SW 17 37 9 20 1012.3 1012.2 0.0
26/04:00pm 32.0 29.1 11.0 27 12.2 SSW 17 28 9 15 1012.4 1012.3 0.0
26/03:30pm 31.5 29.1 11.4 29 11.7 SSW 15 30 8 16 1012.8 1012.6 0.0
26/03:00pm 31.6 28.2 11.3 28 11.8 SW 20 30 11 16 1013.1 1012.9 0.0
26/02:30pm 31.0 28.7 11.6 30 11.3 SSW 15 22 8 12 1013.4 1013.2 0.0
26/02:00pm 30.2 27.6 11.9 32 10.7 WSW 17 32 9 17 1013.7 1013.5 0.0
26/01:30pm 29.5 27.7 12.0 34 10.2 SW 13 24 7 13 1014.0 1013.8 0.0
26/01:00pm 29.1 27.3 12.1 35 9.9 SW 13 24 7 13 1014.5 1014.3 0.0
26/12:30pm 27.9 26.2 12.5 38 9.0 SW 13 24 7 13 1015.0 1014.8 0.0
26/12:00pm 27.7 25.7 12.6 39 8.8 WSW 15 22 8 12 1015.3 1015.1 0.0
26/11:30am 25.9 24.5 13.3 45 7.4 SW 13 19 7 10 1015.7 1015.5 0.0
26/11:00am 24.4 23.5 13.6 51 6.3 WSW 11 17 6 9 1015.9 1015.7 0.0
26/10:30am 23.2 22.5 14.2 57 5.3 SW 11 19 6 10 1016.2 1016.0 0.0
26/10:00am 21.5 20.8 14.3 63 4.2 SW 11 15 6 8 1016.4 1016.2 0.0
26/09:30am 20.6 19.5 14.4 67 3.6 SSW 13 22 7 12 1016.6 1016.4 0.0
26/09:00am 19.6 18.2 14.6 73 2.9 SSW 15 20 8 11 1016.6 1016.4 0.0
26/08:30am 18.4 16.3 14.6 78 2.2 S 19 24 10 13 1016.7 1016.5 0.0
26/08:00am 17.7 16.6 14.4 81 1.9 SSW 13 20 7 11 1016.4 1016.2 0.0
26/07:30am 17.0 15.8 14.0 82 1.7 SSW 13 17 7 9 1016.0 1015.8 0.0
26/07:00am 15.8 16.1 13.3 85 1.4 SW 4 11 2 6 1015.7 1015.5 0.0
26/06:30am 15.2 14.5 13.2 88 1.1 SSW 9 13 5 7 1015.2 1015.0 0.0
26/06:00am 15.5 15.4 13.2 86 1.3 S 6 9 3 5 1014.5 1014.3 0.0
26/05:30am 16.1 15.4 13.2 83 1.6 SSW 9 13 5 7 1014.4 1014.2 0.0
26/05:00am 16.4 15.3 13.2 81 1.8 SSW 11 15 6 8 1014.0 1013.8 0.0
26/04:30am 16.5 15.7 12.9 79 2.0 S 9 11 5 6 1013.7 1013.5 0.0
26/04:00am 17.0 16.6 13.1 78 2.2 SSW 7 9 4 5 1013.7 1013.5 0.0
26/03:30am 16.3 17.1 12.7 79 2.0 CALM 0 0 0 0 1014.0 1013.8 0.0
26/03:00am 17.6 17.8 13.0 74 2.6 SSW 4 7 2 4 1014.0 1013.8 0.0
26/02:30am 18.8 18.4 13.1 69 3.2 S 7 11 4 6 1014.1 1013.9 0.0
26/02:00am 19.6 18.8 12.9 65 3.8 S 9 15 5 8 1014.0 1013.8 0.0
26/01:30am 20.2 18.6 12.8 62 4.2 S 13 19 7 10 1014.0 1013.8 0.0
26/01:00am 20.6 19.3 12.6 60 4.5 S 11 17 6 9 1014.1 1013.9 0.0
26/12:30am 21.2 20.3 12.5 57 4.9 S 9 13 5 7 1014.2 1014.0 0.0
26/12:00am 21.9 20.2 12.4 54 5.4 S 13 17 7 9 1014.0 1013.8 0.0
 
Date/Time
CDT
Temp
°C
App
Temp
°C
Dew
Point
°C
Rel
Hum
%
Delta-T
°C
Wind Press
QNH
hPa
Press
MSL
hPa
Rain since
9am
mm
Dir  Spd
km/h
Gust
km/h
Spd
kts
Gust
kts
25/11:30pm 22.6 20.4 12.2 51 5.9 S 15 20 8 11 1013.9 1013.7 0.0
25/11:00pm 23.4 20.8 11.9 48 6.5 S 17 22 9 12 1013.9 1013.7 0.0
25/10:30pm 24.2 21.1 11.6 45 7.1 S 19 26 10 14 1013.7 1013.5 0.0
25/10:00pm 25.0 22.3 10.4 39 8.1 S 15 20 8 11 1013.6 1013.4 0.0
25/09:30pm 25.4 23.0 8.8 35 9.0 SSW 11 15 6 8 1013.2 1013.0 0.0
25/09:00pm 26.1 23.7 8.8 33 9.4 S 11 15 6 8 1012.9 1012.7 0.0
25/08:30pm 26.9 24.6 9.0 32 9.8 S 11 15 6 8 1012.5 1012.4 0.0
25/08:00pm 28.7 25.6 7.3 26 11.5 SSW 13 19 7 10 1012.2 1012.1 0.0
25/07:30pm 29.5 25.6 7.0 24 12.1 SSW 17 22 9 12 1011.7 1011.6 0.0
25/07:00pm 30.0 26.1 7.3 24 12.3 SW 17 24 9 13 1011.4 1011.3 0.0
25/06:30pm 30.3 26.4 6.9 23 12.6 SSW 17 26 9 14 1011.3 1011.2 0.0
25/06:00pm 30.5 26.3 5.8 21 13.1 SW 17 32 9 17 1011.3 1011.2 0.0
25/05:30pm 30.8 27.5 6.6 22 13.0 SW 13 24 7 13 1011.5 1011.4 0.0
25/05:00pm 30.9 28.6 7.4 23 12.8 SSW 9 20 5 11 1011.9 1011.8 0.0
25/04:30pm 30.2 26.1 6.4 22 12.7 SW 17 28 9 15 1012.2 1012.1 0.0
25/04:00pm 30.0 27.1 8.1 25 12.0 SW 13 20 7 11 1012.3 1012.2 0.0
25/03:30pm 29.6 27.5 8.3 26 11.7 S 9 17 5 9 1012.6 1012.5 0.0
25/03:00pm 29.2 26.0 8.5 27 11.4 WNW 15 22 8 12 1013.3 1013.1 0.0
25/02:30pm 29.0 25.7 8.1 27 11.4 WNW 15 32 8 17 1013.6 1013.4 0.0
25/02:00pm 28.3 25.5 8.6 29 10.8 W 13 24 7 13 1014.1 1013.9 0.0
25/01:30pm 27.7 25.4 9.0 31 10.3 SW 11 24 6 13 1014.6 1014.4 0.0
25/01:00pm 26.3 23.9 10.1 36 9.0 SW 13 19 7 10 1014.8 1014.6 0.0
25/12:30pm 25.5 22.8 10.4 38 8.4 WSW 15 24 8 13 1015.3 1015.1 0.0
25/12:00pm 24.6 22.3 10.3 40 7.9 W 13 20 7 11 1015.6 1015.4 0.0
25/11:30am 24.1 21.9 10.8 43 7.4 W 13 22 7 12 1015.7 1015.5 0.0
25/11:00am 23.0 20.8 10.9 46 6.7 WNW 13 20 7 11 1016.0 1015.8 0.0
25/10:30am 22.3 20.6 11.3 49 6.1 NW 11 19 6 10 1016.2 1016.0 0.0
25/10:00am 21.5 20.7 11.6 53 5.5 NE 7 11 4 6 1016.4 1016.2 0.0
25/09:30am 20.4 20.3 12.0 58 4.7 N 4 7 2 4 1016.4 1016.2 0.0
25/09:00am 19.8 20.0 11.9 60 4.4 S 2 6 1 3 1016.4 1016.2 0.0
25/08:30am 18.1 17.4 11.3 64 3.7 WSW 6 9 3 5 1016.7 1016.5 0.0
25/08:00am 17.0 16.3 11.3 69 3.1 SW 6 9 3 5 1016.5 1016.3 0.0
25/07:30am 15.1 15.4 11.0 76 2.2 CALM 0 0 0 0 1016.2 1016.0 0.0
25/07:00am 12.7 12.8 10.0 84 1.4 CALM 0 0 0 0 1016.0 1015.8 0.0
25/06:30am 11.3 11.1 8.9 85 1.2 CALM 0 0 0 0 1015.8 1015.6 0.0
25/06:00am 11.8 11.6 9.2 84 1.3 CALM 0 0 0 0 1015.6 1015.4 0.0
25/05:30am 12.0 11.8 9.2 83 1.4 CALM 0 0 0 0 1015.6 1015.4 0.0
25/05:00am 12.3 12.2 9.3 82 1.5 CALM 0 0 0 0 1015.6 1015.4 0.0
25/04:30am 12.5 12.4 9.3 81 1.6 CALM 0 0 0 0 1015.6 1015.4 0.0
25/04:00am 12.8 12.6 9.2 79 1.8 CALM 0 0 0 0 1015.6 1015.4 0.0
25/03:30am 13.3 13.4 10.2 81 1.6 CALM 0 0 0 0 1015.5 1015.3 0.0
25/03:00am 13.9 14.1 10.5 80 1.8 CALM 0 0 0 0 1015.6 1015.4 0.0
25/02:30am 15.0 15.2 10.6 75 2.3 CALM 0 0 0 0 1015.7 1015.5 0.0
25/02:00am 17.1 15.6 10.7 66 3.4 S 9 11 5 6 1015.7 1015.5 0.0
25/01:30am 17.9 16.0 10.6 62 3.9 SSW 11 17 6 9 1015.7 1015.5 0.0
25/01:00am 18.1 16.2 10.4 60 4.1 SSW 11 17 6 9 1015.7 1015.5 0.0
25/12:30am 18.2 16.6 10.3 60 4.2 SW 9 11 5 6 1015.6 1015.4 0.0
25/12:00am 18.9 16.6 10.3 57 4.6 SW 13 17 7 9 1015.3 1015.1 0.0
 
Date/Time
CDT
Temp
°C
App
Temp
°C
Dew
Point
°C
Rel
Hum
%
Delta-T
°C
Wind Press
QNH
hPa
Press
MSL
hPa
Rain since
9am
mm
Dir  Spd
km/h
Gust
km/h
Spd
kts
Gust
kts
24/11:30pm 19.2 16.7 9.8 54 5.0 SW 13 17 7 9 1015.3 1015.1 0.0
24/11:00pm 19.1 17.2 9.0 52 5.3 SW 9 13 5 7 1015.1 1014.9 0.0
24/10:30pm 19.8 18.3 9.0 49 5.7 SSW 7 9 4 5 1015.0 1014.8 0.0
24/10:00pm 21.4 19.0 8.5 43 6.8 SSW 11 13 6 7 1014.8 1014.6 0.0
24/09:30pm 22.1 19.3 8.5 41 7.2 SSW 13 17 7 9 1014.3 1014.1 0.0
24/09:00pm 23.0 19.4 8.3 39 7.8 SW 17 22 9 12 1013.9 1013.7 0.0
24/08:30pm 23.8 20.2 8.2 37 8.3 SSW 17 22 9 12 1013.4 1013.2 0.0
24/08:00pm 24.9 21.5 7.7 33 9.1 SW 15 24 8 13 1013.1 1012.9 0.0
24/07:30pm 26.3 22.6 6.4 28 10.4 SW 15 20 8 11 1012.6 1012.5 0.0
24/07:00pm 27.0 22.7 5.2 24 11.2 SW 17 26 9 14 1012.3 1012.2 0.0
24/06:30pm 27.5 24.0 5.5 24 11.4 W 13 19 7 10 1012.1 1012.0 0.0
24/06:00pm 27.9 23.5 4.9 23 11.8 WSW 17 32 9 17 1012.2 1012.1 0.0
24/05:30pm 27.0 23.1 5.5 25 11.1 W 15 26 8 14 1012.3 1012.2 0.0
24/05:00pm 27.0 22.4 5.5 25 11.1 W 19 41 10 22 1012.5 1012.4 0.0
24/04:30pm 25.8 21.7 6.1 28 10.2 WSW 17 35 9 19 1013.0 1012.8 0.0
24/04:00pm 24.9 21.9 7.5 33 9.2 WSW 13 24 7 13 1013.3 1013.1 0.0
24/03:30pm 25.1 21.4 7.8 33 9.2 W 17 28 9 15 1013.6 1013.4 0.0
24/03:00pm 24.0 19.9 7.9 35 8.5 WSW 19 30 10 16 1014.0 1013.8 0.0
24/02:30pm 24.3 20.6 7.9 35 8.7 WSW 17 35 9 19 1014.2 1014.0 0.0
24/02:00pm 24.0 19.8 7.4 34 8.7 WSW 19 28 10 15 1014.5 1014.3 0.0
24/01:30pm 22.7 18.7 6.7 35 8.2 WSW 17 28 9 15 1014.6 1014.4 0.0
24/01:00pm 23.4 19.3 6.2 33 8.8 NW 17 30 9 16 1014.9 1014.7 0.0
24/12:30pm 22.8 18.9 5.2 32 8.8 WNW 15 20 8 11 1015.2 1015.0 0.0
24/12:00pm 22.3 19.1 5.2 33 8.5 SW 11 20 6 11 1015.5 1015.3 0.0
24/11:30am 21.2 17.8 6.1 37 7.6 WSW 13 26 7 14 1015.5 1015.3 0.0
24/11:00am 20.9 17.6 6.4 39 7.3 WNW 13 24 7 13 1015.6 1015.4 0.0
24/10:30am 20.4 16.6 6.0 39 7.2 WSW 15 24 8 13 1015.6 1015.4 0.0
24/10:00am 20.1 17.2 6.6 41 6.8 WNW 11 19 6 10 1015.7 1015.5 0.0
24/09:30am 18.3 15.6 7.4 49 5.5 NW 11 17 6 9 1015.5 1015.3 0.0
24/09:00am 17.0 14.8 7.7 54 4.7 NW 9 13 5 7 1015.3 1015.1 0.8
24/08:30am 15.5 12.7 7.0 57 4.2 NW 11 13 6 7 1015.0 1014.8 0.8
24/08:00am 14.2 11.8 6.8 61 3.6 WNW 9 11 5 6 1014.5 1014.3 0.8

Other formats

Comma delimited format used in spreadsheet applications
http://www.bom.gov.au/fwo/IDS60801/IDS60801.94682.axf

JavaScript Object Notation format (JSON) in row-major order
http://www.bom.gov.au/fwo/IDS60801/IDS60801.94682.json

Data quality

Most of these data are generated automatically and are frequently updated. Quality checks on data are not normally performed. It is possible for incorrect values to appear. Refer to information at About Latest Weather Observations and please check the disclaimer before using these data.